Whon, Texas
Current Conditions -  °F | °C
As of 6:15 PM on Wednesday 26 Nov 2014 (Local Time) from KCOM Reporting Station
Clear Clear  
Wind Chill: 51°   Ceiling: Unl
Heat Index: 51°   Visibility: 10mi
Dew Point: 40°   Wind: 5mph
Humidity: 64%   Direction: 90°E
Pressure: 30.29"   Gusts: NA
Location:  31.6351°N, 99.3118°W
Report Text: KCOM 270015Z AUTO 09004KT 10SM CLR 11/04 A3029 RMK AO2 T01080042
Loading
Personal Weather Stations






























Interactive Weather Map New forecast layout! Learn more

10-Day Weather Forecast

Advertisements
Track Severe Weather on mobile